LFRV/VNE METAR and TAF weather

Enter ICAO airport designator
Station Type Date Time Source
LFRV METAR 2019/08/24 18:30 UTC NOAA

LFRV 241830Z AUTO 24003KT CAVOK 23/15 Q1016


Station Type Date Time Source
LFRV Decoded METAR 2019/08/24 18:30 UTC NOAA

Station name not available
Aug 24, 2019 - 02:30 PM EDT / 2019.08.24 1830 UTC
Wind: from the WSW (240 degrees) at 3 MPH (3 KT):0
Visibility: greater than 7 mile(s):0
Temperature: 73 F (23 C)
Dew Point: 59 F (15 C)
Relative Humidity: 60%
Pressure (altimeter): 30.00 in. Hg (1016 hPa)
ob: LFRV 241830Z AUTO 24003KT CAVOK 23/15 Q1016
cycle: 18

Station Type Date Time Source
LFRV TAF UTC NOAA

Error!

Example: see airport list